Stations météo

Publicité
Rodkallen, Suède (2188): Température de l'air & dewpoint: 20.09.2017 13:00:00 - 26.09.2017 13:00:00 (CEST)Rodkallen, Suède (2188): Vitesse du vent & gusts: 20.09.2017 13:00:00 - 26.09.2017 13:00:00 (CEST)Rodkallen, Suède (2188): Direction du vent: 20.09.2017 13:00:00 - 26.09.2017 13:00:00 (CEST)Rodkallen, Suède (2188): visibility: 20.09.2017 13:00:00 - 26.09.2017 13:00:00 (CEST)Rodkallen, Suède (2188): Quantités de précipitations: 20.09.2017 13:00:00 - 26.09.2017 13:00:00 (CEST)
Date & Time tt [°C] td [°C] ff [km/h] ff [knt] fx [km/h] fx [knt] dd vv [km] rr [mm]
26.09.2017 13:00:00 - - - - - - - - -
26.09.2017 12:00:00 10,4 7,6 16 9 21 11 SSW 41 0,0
26.09.2017 11:00:00 10,2 6,9 13 7 25 14 SW 41 0,0
26.09.2017 10:00:00 9,4 6,3 16 9 25 14 SW 49 0,0
26.09.2017 09:00:00 9,2 6,3 20 11 29 16 SW 48 0,0
26.09.2017 08:00:00 8,9 6,2 18 10 29 16 SW 49 0,0
26.09.2017 07:00:00 9,0 6,6 16 9 25 14 SW 48 0,0
26.09.2017 06:00:00 9,1 6,9 17 9 23 13 SSW 45 0,0
26.09.2017 05:00:00 9,5 7,4 16 8 23 13 SW 33 0,0
26.09.2017 04:00:00 9,8 8,1 16 9 23 13 SW 26 0,0
26.09.2017 03:00:00 9,7 8,3 19 10 26 14 SSW 24 0,0
26.09.2017 02:00:00 9,6 9,5 17 9 26 14 SW 20 0,0
26.09.2017 01:00:00 9,0 8,9 16 9 24 13 SW 7 0,0
26.09.2017 00:00:00 9,0 8,9 17 9 24 13 SW 1,2 0,0
25.09.2017 23:00:00 8,9 8,8 16 9 22 12 SSW 0,6 0,0
25.09.2017 22:00:00 8,9 8,6 16 8 22 12 SW 2,0 0,0
25.09.2017 21:00:00 9,1 8,8 13 7 21 12 SSW 4,9 0,0
25.09.2017 20:00:00 8,9 8,6 11 6 20 11 SSW 10 0,0
25.09.2017 19:00:00 8,8 8,5 16 8 20 11 SSW 1,9 0,0
25.09.2017 18:00:00 9,2 8,6 11 6 18 10 SSW 15 0,0
25.09.2017 17:00:00 9,5 8,9 10 5 16 9 SSW 22 0,0
25.09.2017 16:00:00 9,7 9,1 8 4 11 6 S 23 0,0
25.09.2017 15:00:00 9,9 9,6 2 1 8 4 SSW 11 0,0
25.09.2017 14:00:00 10,0 9,8 4 2 7 4 W 7 0,0
25.09.2017 13:00:00 10,0 9,8 4 2 10 5 NNW 4,0 0,0
25.09.2017 12:00:00 9,9 9,7 4 2 11 6 NNW 2,0 0,5
25.09.2017 11:00:00 9,6 9,5 6 4 11 6 NNW 1,7 0,0
25.09.2017 10:00:00 9,5 9,4 6 3 11 6 NW 1,7 0,0
25.09.2017 09:00:00 9,4 9,3 7 4 12 7 NNW 2,1 0,0
25.09.2017 08:00:00 9,2 9,1 7 4 12 7 NNW 2,4 0,0
25.09.2017 07:00:00 9,3 9,2 9 5 15 8 NNW 2,8 0,0
25.09.2017 06:00:00 9,2 9,1 9 5 15 8 NW 3,0 0,0
25.09.2017 05:00:00 9,3 9,2 9 5 13 7 NW 4,1 0,0
25.09.2017 04:00:00 9,4 9,3 8 4 11 6 NW 3,9 0,0
25.09.2017 03:00:00 9,5 9,2 6 4 11 6 NW 3,4 0,0
25.09.2017 02:00:00 9,6 9,3 7 4 11 6 NW 3,8 0,0
25.09.2017 01:00:00 9,6 9,3 7 4 11 6 NW 3,2 0,0
25.09.2017 00:00:00 9,5 9,2 8 4 11 6 NW 4,3 0,0
24.09.2017 23:00:00 9,6 9,1 7 4 9 5 W 7 0,0
24.09.2017 22:00:00 9,9 9,4 6 3 8 4 SW 5 0,0
24.09.2017 21:00:00 9,9 9,3 0 0 8 5 N 6 0,0
24.09.2017 20:00:00 10,0 9,2 6 3 16 9 E 10 0,0
24.09.2017 19:00:00 9,9 8,2 4 2 18 10 E 50 0,0
24.09.2017 18:00:00 9,8 8,2 8 5 19 11 ENE 43 0,0
24.09.2017 17:00:00 9,8 7,9 11 6 19 11 ENE 50 0,0
24.09.2017 16:00:00 9,8 8,2 9 5 16 9 NE 32 0,0
24.09.2017 15:00:00 10,2 8,0 8 4 14 7 NE 47 0,0
24.09.2017 14:00:00 10,3 8,1 11 6 14 7 ENE 50 0,0
24.09.2017 13:00:00 10,5 8,4 5 3 9 5 E 49 0,0
24.09.2017 12:00:00 10,4 8,8 4 2 9 5 ENE 45 0,0
24.09.2017 11:00:00 10,4 9,0 5 3 9 5 E 40 0,0
24.09.2017 10:00:00 10,4 9,3 5 3 7 4 E 38 0,0
24.09.2017 09:00:00 10,3 9,4 4 2 8 4 SE 25 0,0
24.09.2017 08:00:00 10,2 9,7 5 3 8 4 SSE 19 0,0
24.09.2017 07:00:00 10,1 9,8 4 2 6 3 SE 9 0,0
24.09.2017 06:00:00 10,1 9,8 5 3 6 3 S 7 0,0
24.09.2017 05:00:00 10,1 9,8 3 1 10 5 S 8 0,0
24.09.2017 04:00:00 10,2 9,9 7 4 10 5 S 11 0,0
24.09.2017 03:00:00 10,2 9,9 6 4 9 5 S 9 0,0
24.09.2017 02:00:00 10,2 9,7 6 3 9 5 S 9 0,0
24.09.2017 01:00:00 10,2 9,7 4 2 10 5 SSW 11 0,0
24.09.2017 00:00:00 10,2 9,7 5 3 10 5 SSW 13 0,0
23.09.2017 23:00:00 10,2 9,6 6 3 14 7 S 13 0,0
23.09.2017 22:00:00 10,1 9,5 8 4 14 8 S 19 0,0
23.09.2017 21:00:00 10,1 9,5 10 5 12 7 SSE 14 0,0
23.09.2017 20:00:00 10,0 9,4 10 5 15 8 SE 17 0,0
23.09.2017 19:00:00 9,8 9,0 10 5 15 8 SE 7 0,0
23.09.2017 18:00:00 9,9 9,0 11 6 18 10 SSE 9 0,0
23.09.2017 17:00:00 10,1 9,0 10 5 18 10 SSE 26 0,0
23.09.2017 16:00:00 10,1 9,0 14 8 21 12 SE 27 0,0
23.09.2017 15:00:00 10,2 9,0 16 9 21 12 SE 39 0,0
23.09.2017 14:00:00 10,3 8,7 17 9 20 11 SE 40 0,0
23.09.2017 13:00:00 10,4 8,8 16 9 19 11 SE 39 0,0
23.09.2017 12:00:00 10,4 8,8 14 7 19 10 SE 42 0,0
23.09.2017 11:00:00 10,3 8,6 15 8 24 13 ESE 45 0,0
23.09.2017 10:00:00 10,2 8,5 16 8 24 13 ESE 37 0,0
23.09.2017 09:00:00 10,1 8,2 16 8 23 12 E 50 0,0
23.09.2017 08:00:00 10,0 7,6 12 6 23 13 ESE 50 0,0
23.09.2017 07:00:00 9,9 7,5 16 9 23 13 ESE 50 0,0
23.09.2017 06:00:00 9,9 7,7 17 9 22 12 ESE 50 0,0
23.09.2017 05:00:00 10,1 7,3 11 6 21 11 ESE 50 0,0
23.09.2017 04:00:00 10,1 8,2 13 7 21 11 ESE 50 0,0
23.09.2017 03:00:00 10,2 8,6 17 9 21 11 SSE 50 0,0
23.09.2017 02:00:00 10,2 9,1 14 8 17 9 SSE 47 0,0
23.09.2017 01:00:00 9,6 8,7 7 4 13 7 ENE 42 0,0
23.09.2017 00:00:00 9,3 8,2 9 5 13 7 ENE 43 0,0
22.09.2017 23:00:00 8,8 7,9 9 5 15 8 ENE 44 0,0
22.09.2017 22:00:00 8,0 7,2 8 4 16 9 E 19 0,0
22.09.2017 21:00:00 8,1 7,0 10 5 20 11 ESE 19 0,0
22.09.2017 20:00:00 8,1 6,9 13 7 22 12 ESE 42 0,0
22.09.2017 19:00:00 8,2 7,1 16 9 22 12 ESE 37 0,0
22.09.2017 18:00:00 8,6 7,2 13 7 17 9 E 47 0,0
22.09.2017 17:00:00 9,0 7,8 11 6 17 9 SE 31 0,0
22.09.2017 16:00:00 9,0 7,8 11 6 25 13 ESE 27 0,0
22.09.2017 15:00:00 9,4 7,8 13 7 25 14 SSE 43 0,0
22.09.2017 14:00:00 9,5 8,1 18 10 28 15 SE 42 0,0
22.09.2017 13:00:00 9,6 7,9 16 9 30 16 SSE 48 0,0
22.09.2017 12:00:00 9,9 8,3 23 12 35 19 SSE 45 0,0
22.09.2017 11:00:00 10,0 8,6 27 15 35 19 SSE 31 0,0
22.09.2017 10:00:00 10,3 8,9 28 15 35 19 SSE 39 0,0
22.09.2017 09:00:00 10,4 9,0 23 12 29 16 SSE 39 0,0
22.09.2017 08:00:00 10,3 9,2 22 12 29 16 SSE 37 0,0
22.09.2017 07:00:00 10,2 9,3 21 11 37 20 SSE 29 0,0
22.09.2017 06:00:00 10,3 9,2 26 14 38 21 SSE 26 0,0
22.09.2017 05:00:00 10,3 9,2 29 16 38 21 SSE 32 0,0
22.09.2017 04:00:00 10,3 9,4 27 15 38 21 SSE 20 0,0
22.09.2017 03:00:00 10,4 9,2 29 15 38 21 SSE 25 0,0
22.09.2017 02:00:00 10,6 9,6 27 15 33 18 SE 19 0,0
22.09.2017 01:00:00 10,5 9,7 21 11 29 16 SE 15 0,0
22.09.2017 00:00:00 10,2 9,4 21 11 32 17 SE 15 0,0
21.09.2017 23:00:00 10,2 9,2 23 12 35 19 ESE 23 0,0
21.09.2017 22:00:00 10,2 9,1 26 14 36 19 SE 27 0,0
21.09.2017 21:00:00 10,1 8,8 27 15 37 20 ESE 38 0,0
21.09.2017 20:00:00 10,0 8,5 27 15 37 20 ESE 42 0,0
21.09.2017 19:00:00 9,9 8,3 26 14 36 20 ESE 47 0,0
21.09.2017 18:00:00 9,9 8,0 28 15 39 21 ESE 50 0,0
21.09.2017 17:00:00 9,9 7,8 28 15 - - ESE 50 0,0
21.09.2017 16:00:00 9,6 7,2 28 15 - - ESE 47 -
21.09.2017 15:00:00 9,5 7,1 29 16 36 20 E 47 0,0
21.09.2017 14:00:00 9,2 6,9 31 17 41 22 E 50 0,0
21.09.2017 13:00:00 8,9 6,6 32 17 41 22 E 48 0,0
21.09.2017 12:00:00 8,8 6,6 31 17 41 22 E 50 0,0
21.09.2017 11:00:00 8,7 6,5 34 18 41 22 E 50 0,0
21.09.2017 10:00:00 8,7 6,5 31 17 39 21 E 50 0,0
21.09.2017 09:00:00 8,6 6,7 31 17 38 21 ESE 50 0,0
21.09.2017 08:00:00 8,6 6,7 28 15 35 19 ESE 50 0,0
21.09.2017 07:00:00 8,4 6,5 26 14 37 20 ESE 37 0,0
21.09.2017 06:00:00 8,1 6,6 28 15 37 20 E 15 0,1
21.09.2017 05:00:00 8,2 5,9 30 16 40 22 E 17 0,4
21.09.2017 04:00:00 8,3 5,7 30 16 43 23 E 18 0,0
21.09.2017 03:00:00 8,3 5,5 31 17 44 24 E 36 0,0
21.09.2017 02:00:00 8,1 5,5 32 18 50 27 E 30 0,0
21.09.2017 01:00:00 8,2 5,5 36 19 50 27 E 27 0,6
21.09.2017 00:00:00 8,4 5,5 36 19 54 29 E 11 0,5
20.09.2017 23:00:00 8,5 5,5 42 23 53 29 ENE 40 0,2
20.09.2017 22:00:00 8,7 5,2 40 21 56 30 ENE 33 0,2
20.09.2017 21:00:00 8,5 4,9 35 19 56 30 ENE 32 0,1
20.09.2017 20:00:00 8,7 3,8 36 19 53 29 ENE 50 0,0
20.09.2017 19:00:00 8,7 4,5 40 21 54 29 ENE 45 0,0
20.09.2017 18:00:00 8,7 3,7 40 21 50 27 ENE 50 0,0
20.09.2017 17:00:00 8,6 3,6 40 21 47 25 ENE 45 0,0
20.09.2017 16:00:00 8,5 3,3 36 19 47 25 ENE 40 0,0
20.09.2017 15:00:00 8,3 3,2 40 21 50 27 ENE 40 0,0
20.09.2017 14:00:00 8,0 3,4 40 21 50 27 NE 50 0,0
20.09.2017 13:00:00 - - - - - - - - -

tt = Température de l'air
td = dewpoint
ff = Vitesse du vent
fx = gusts
dd = Direction du vent
vv = visibility
rr = Quantités de précipitations

stations d'obs. à proximité